sensor_id;sensor_type;location;lat;lon;timestamp;P1;durP1;ratioP1;P2;durP2;ratioP2
20523;SDS011;10420;48.542;12.270;2023-03-01T00:04:40;32.70;;;15.20;;
20523;SDS011;10420;48.542;12.270;2023-03-01T00:09:40;34.43;;;15.70;;
20523;SDS011;10420;48.542;12.270;2023-03-01T00:14:41;34.07;;;16.17;;
20523;SDS011;10420;48.542;12.270;2023-03-01T00:19:41;36.23;;;16.53;;
20523;SDS011;10420;48.542;12.270;2023-03-01T00:24:42;31.40;;;15.33;;
20523;SDS011;10420;48.542;12.270;2023-03-01T00:29:43;26.47;;;12.77;;
20523;SDS011;10420;48.542;12.270;2023-03-01T00:34:43;34.67;;;15.67;;
20523;SDS011;10420;48.542;12.270;2023-03-01T00:39:54;37.73;;;16.73;;
20523;SDS011;10420;48.542;12.270;2023-03-01T00:44:54;32.67;;;15.07;;
20523;SDS011;10420;48.542;12.270;2023-03-01T00:49:55;34.57;;;15.83;;
20523;SDS011;10420;48.542;12.270;2023-03-01T00:54:56;36.23;;;15.87;;
20523;SDS011;10420;48.542;12.270;2023-03-01T00:59:57;37.77;;;17.17;;
20523;SDS011;10420;48.542;12.270;2023-03-01T01:04:58;38.90;;;16.27;;
20523;SDS011;10420;48.542;12.270;2023-03-01T01:09:59;37.13;;;17.40;;
20523;SDS011;10420;48.542;12.270;2023-03-01T01:14:59;34.03;;;16.13;;
20523;SDS011;10420;48.542;12.270;2023-03-01T01:20:00;41.20;;;17.47;;
20523;SDS011;10420;48.542;12.270;2023-03-01T01:25:01;38.60;;;16.90;;
20523;SDS011;10420;48.542;12.270;2023-03-01T01:30:01;34.43;;;16.57;;
20523;SDS011;10420;48.542;12.270;2023-03-01T01:35:03;35.70;;;16.60;;
20523;SDS011;10420;48.542;12.270;2023-03-01T01:40:04;35.63;;;16.93;;
20523;SDS011;10420;48.542;12.270;2023-03-01T01:50:22;41.63;;;16.73;;
20523;SDS011;10420;48.542;12.270;2023-03-01T01:55:24;36.27;;;16.27;;
20523;SDS011;10420;48.542;12.270;2023-03-01T02:00:28;36.20;;;17.03;;
20523;SDS011;10420;48.542;12.270;2023-03-01T02:05:34;37.73;;;17.13;;
20523;SDS011;10420;48.542;12.270;2023-03-01T02:10:56;39.53;;;18.23;;
20523;SDS011;10420;48.542;12.270;2023-03-01T02:16:02;35.57;;;16.20;;
20523;SDS011;10420;48.542;12.270;2023-03-01T02:21:17;40.17;;;16.77;;
20523;SDS011;10420;48.542;12.270;2023-03-01T02:26:39;41.87;;;17.60;;
20523;SDS011;10420;48.542;12.270;2023-03-01T02:31:45;37.63;;;17.03;;
20523;SDS011;10420;48.542;12.270;2023-03-01T02:36:47;40.10;;;18.10;;
20523;SDS011;10420;48.542;12.270;2023-03-01T02:41:52;41.83;;;18.33;;
20523;SDS011;10420;48.542;12.270;2023-03-01T02:46:55;37.47;;;16.90;;
20523;SDS011;10420;48.542;12.270;2023-03-01T02:52:05;41.63;;;18.63;;
20523;SDS011;10420;48.542;12.270;2023-03-01T02:57:21;44.50;;;17.73;;
20523;SDS011;10420;48.542;12.270;2023-03-01T03:02:28;38.47;;;16.13;;
20523;SDS011;10420;48.542;12.270;2023-03-01T03:07:37;40.53;;;18.03;;
20523;SDS011;10420;48.542;12.270;2023-03-01T03:12:40;39.47;;;17.63;;
20523;SDS011;10420;48.542;12.270;2023-03-01T03:17:41;42.13;;;17.63;;
20523;SDS011;10420;48.542;12.270;2023-03-01T03:22:42;34.83;;;16.53;;
20523;SDS011;10420;48.542;12.270;2023-03-01T03:27:44;39.27;;;17.20;;
20523;SDS011;10420;48.542;12.270;2023-03-01T03:32:46;41.27;;;18.47;;
20523;SDS011;10420;48.542;12.270;2023-03-01T03:37:53;43.30;;;18.37;;
20523;SDS011;10420;48.542;12.270;2023-03-01T03:43:03;39.10;;;17.57;;
20523;SDS011;10420;48.542;12.270;2023-03-01T03:48:07;42.77;;;18.53;;
20523;SDS011;10420;48.542;12.270;2023-03-01T03:53:10;40.80;;;18.53;;
20523;SDS011;10420;48.542;12.270;2023-03-01T03:58:11;44.53;;;18.13;;
20523;SDS011;10420;48.542;12.270;2023-03-01T04:03:13;40.47;;;18.43;;
20523;SDS011;10420;48.542;12.270;2023-03-01T04:08:15;38.40;;;17.67;;
20523;SDS011;10420;48.542;12.270;2023-03-01T04:13:20;43.37;;;19.13;;
20523;SDS011;10420;48.542;12.270;2023-03-01T04:18:22;39.50;;;18.53;;
20523;SDS011;10420;48.542;12.270;2023-03-01T04:23:25;44.00;;;17.33;;
20523;SDS011;10420;48.542;12.270;2023-03-01T04:28:43;45.20;;;18.77;;
20523;SDS011;10420;48.542;12.270;2023-03-01T04:33:46;42.03;;;18.87;;
20523;SDS011;10420;48.542;12.270;2023-03-01T04:38:49;41.37;;;18.00;;
20523;SDS011;10420;48.542;12.270;2023-03-01T04:43:49;44.23;;;18.27;;
20523;SDS011;10420;48.542;12.270;2023-03-01T04:48:50;46.07;;;18.93;;
20523;SDS011;10420;48.542;12.270;2023-03-01T04:53:51;42.20;;;17.93;;
20523;SDS011;10420;48.542;12.270;2023-03-01T04:58:54;40.70;;;17.93;;
20523;SDS011;10420;48.542;12.270;2023-03-01T05:03:55;45.03;;;19.20;;
20523;SDS011;10420;48.542;12.270;2023-03-01T05:08:56;47.30;;;19.70;;
20523;SDS011;10420;48.542;12.270;2023-03-01T05:13:56;45.63;;;18.50;;
20523;SDS011;10420;48.542;12.270;2023-03-01T05:18:57;44.37;;;19.53;;
20523;SDS011;10420;48.542;12.270;2023-03-01T05:23:59;44.67;;;18.80;;
20523;SDS011;10420;48.542;12.270;2023-03-01T05:28:59;45.13;;;19.77;;
20523;SDS011;10420;48.542;12.270;2023-03-01T05:34:00;43.70;;;18.93;;
20523;SDS011;10420;48.542;12.270;2023-03-01T05:39:02;47.33;;;20.17;;
20523;SDS011;10420;48.542;12.270;2023-03-01T05:44:03;41.63;;;18.50;;
20523;SDS011;10420;48.542;12.270;2023-03-01T05:49:06;45.90;;;20.17;;
20523;SDS011;10420;48.542;12.270;2023-03-01T05:54:07;43.43;;;19.13;;
20523;SDS011;10420;48.542;12.270;2023-03-01T05:59:09;47.53;;;19.07;;
20523;SDS011;10420;48.542;12.270;2023-03-01T06:04:10;44.80;;;19.93;;
20523;SDS011;10420;48.542;12.270;2023-03-01T06:09:10;45.63;;;20.03;;
20523;SDS011;10420;48.542;12.270;2023-03-01T06:14:11;40.93;;;19.17;;
20523;SDS011;10420;48.542;12.270;2023-03-01T06:19:14;47.70;;;22.27;;
20523;SDS011;10420;48.542;12.270;2023-03-01T06:24:15;47.97;;;18.57;;
20523;SDS011;10420;48.542;12.270;2023-03-01T06:29:15;44.70;;;19.43;;
20523;SDS011;10420;48.542;12.270;2023-03-01T06:34:16;47.07;;;18.07;;
20523;SDS011;10420;48.542;12.270;2023-03-01T06:39:17;47.30;;;19.63;;
20523;SDS011;10420;48.542;12.270;2023-03-01T06:44:17;45.27;;;19.27;;
20523;SDS011;10420;48.542;12.270;2023-03-01T06:49:18;40.57;;;18.73;;
20523;SDS011;10420;48.542;12.270;2023-03-01T06:54:20;47.33;;;18.60;;
20523;SDS011;10420;48.542;12.270;2023-03-01T06:59:22;43.00;;;17.93;;
20523;SDS011;10420;48.542;12.270;2023-03-01T07:04:22;42.63;;;18.70;;
20523;SDS011;10420;48.542;12.270;2023-03-01T07:09:23;47.67;;;19.87;;
20523;SDS011;10420;48.542;12.270;2023-03-01T07:14:24;41.80;;;18.47;;
20523;SDS011;10420;48.542;12.270;2023-03-01T07:19:25;45.53;;;18.70;;
20523;SDS011;10420;48.542;12.270;2023-03-01T07:24:26;41.80;;;17.93;;
20523;SDS011;10420;48.542;12.270;2023-03-01T07:29:27;41.30;;;18.53;;
20523;SDS011;10420;48.542;12.270;2023-03-01T07:34:28;43.03;;;18.77;;
20523;SDS011;10420;48.542;12.270;2023-03-01T07:39:29;43.17;;;18.80;;
20523;SDS011;10420;48.542;12.270;2023-03-01T07:44:30;41.30;;;17.77;;
20523;SDS011;10420;48.542;12.270;2023-03-01T07:49:30;46.70;;;19.30;;
20523;SDS011;10420;48.542;12.270;2023-03-01T07:54:31;44.53;;;18.73;;
20523;SDS011;10420;48.542;12.270;2023-03-01T07:59:32;39.77;;;17.10;;
20523;SDS011;10420;48.542;12.270;2023-03-01T08:04:33;43.47;;;19.23;;
20523;SDS011;10420;48.542;12.270;2023-03-01T08:09:34;41.30;;;17.47;;
20523;SDS011;10420;48.542;12.270;2023-03-01T08:14:36;41.73;;;18.17;;
20523;SDS011;10420;48.542;12.270;2023-03-01T08:19:37;36.47;;;16.53;;
20523;SDS011;10420;48.542;12.270;2023-03-01T08:24:38;34.13;;;15.57;;
20523;SDS011;10420;48.542;12.270;2023-03-01T08:29:38;39.97;;;16.83;;
20523;SDS011;10420;48.542;12.270;2023-03-01T08:34:39;37.83;;;18.10;;
20523;SDS011;10420;48.542;12.270;2023-03-01T08:39:39;33.27;;;14.07;;
20523;SDS011;10420;48.542;12.270;2023-03-01T08:44:40;35.80;;;17.10;;
20523;SDS011;10420;48.542;12.270;2023-03-01T08:49:41;44.83;;;17.17;;
20523;SDS011;10420;48.542;12.270;2023-03-01T08:54:41;39.10;;;17.77;;
20523;SDS011;10420;48.542;12.270;2023-03-01T08:59:42;40.03;;;18.60;;
20523;SDS011;10420;48.542;12.270;2023-03-01T09:04:43;37.03;;;13.90;;
20523;SDS011;10420;48.542;12.270;2023-03-01T09:09:44;39.13;;;15.07;;
20523;SDS011;10420;48.542;12.270;2023-03-01T09:14:44;40.07;;;17.43;;
20523;SDS011;10420;48.542;12.270;2023-03-01T09:19:45;35.93;;;15.93;;
20523;SDS011;10420;48.542;12.270;2023-03-01T09:24:46;34.93;;;15.40;;
20523;SDS011;10420;48.542;12.270;2023-03-01T09:29:46;34.07;;;16.17;;
20523;SDS011;10420;48.542;12.270;2023-03-01T09:34:47;32.17;;;16.83;;
20523;SDS011;10420;48.542;12.270;2023-03-01T09:40:06;31.63;;;16.20;;
20523;SDS011;10420;48.542;12.270;2023-03-01T09:45:21;33.77;;;17.40;;
20523;SDS011;10420;48.542;12.270;2023-03-01T09:50:38;32.07;;;18.27;;
20523;SDS011;10420;48.542;12.270;2023-03-01T09:55:46;33.83;;;17.10;;
20523;SDS011;10420;48.542;12.270;2023-03-01T10:00:51;29.03;;;16.80;;
20523;SDS011;10420;48.542;12.270;2023-03-01T10:11:03;29.67;;;15.33;;
20523;SDS011;10420;48.542;12.270;2023-03-01T10:21:45;33.90;;;17.53;;
20523;SDS011;10420;48.542;12.270;2023-03-01T10:26:55;32.40;;;15.90;;
20523;SDS011;10420;48.542;12.270;2023-03-01T10:31:59;31.63;;;16.60;;
20523;SDS011;10420;48.542;12.270;2023-03-01T10:37:11;29.37;;;16.53;;
20523;SDS011;10420;48.542;12.270;2023-03-01T10:42:19;30.23;;;16.70;;
20523;SDS011;10420;48.542;12.270;2023-03-01T10:47:26;31.90;;;18.30;;
20523;SDS011;10420;48.542;12.270;2023-03-01T10:52:33;35.63;;;18.40;;
20523;SDS011;10420;48.542;12.270;2023-03-01T10:57:38;31.70;;;16.93;;
20523;SDS011;10420;48.542;12.270;2023-03-01T11:02:42;40.87;;;19.00;;
20523;SDS011;10420;48.542;12.270;2023-03-01T11:07:47;37.40;;;18.30;;
20523;SDS011;10420;48.542;12.270;2023-03-01T11:12:48;34.67;;;18.03;;
20523;SDS011;10420;48.542;12.270;2023-03-01T11:17:51;34.37;;;17.70;;
20523;SDS011;10420;48.542;12.270;2023-03-01T11:22:55;27.90;;;14.80;;
20523;SDS011;10420;48.542;12.270;2023-03-01T11:27:59;33.40;;;17.07;;
20523;SDS011;10420;48.542;12.270;2023-03-01T11:33:12;35.77;;;16.30;;
20523;SDS011;10420;48.542;12.270;2023-03-01T11:38:26;34.73;;;16.97;;
20523;SDS011;10420;48.542;12.270;2023-03-01T11:43:42;31.97;;;15.87;;
20523;SDS011;10420;48.542;12.270;2023-03-01T11:59:45;33.13;;;16.70;;
20523;SDS011;10420;48.542;12.270;2023-03-01T12:26:44;30.40;;;16.43;;
20523;SDS011;10420;48.542;12.270;2023-03-01T12:32:32;34.97;;;17.23;;
20523;SDS011;10420;48.542;12.270;2023-03-01T12:37:21;28.87;;;14.20;;
20523;SDS011;10420;48.542;12.270;2023-03-01T12:58:32;28.13;;;15.63;;
20523;SDS011;10420;48.542;12.270;2023-03-01T13:09:38;27.23;;;14.60;;
20523;SDS011;10420;48.542;12.270;2023-03-01T13:19:37;28.27;;;15.53;;
20523;SDS011;10420;48.542;12.270;2023-03-01T13:24:40;27.47;;;14.10;;
20523;SDS011;10420;48.542;12.270;2023-03-01T13:29:46;32.20;;;16.57;;
20523;SDS011;10420;48.542;12.270;2023-03-01T13:34:52;27.80;;;13.77;;
20523;SDS011;10420;48.542;12.270;2023-03-01T13:40:56;25.73;;;13.13;;
20523;SDS011;10420;48.542;12.270;2023-03-01T13:45:41;30.07;;;14.53;;
20523;SDS011;10420;48.542;12.270;2023-03-01T13:50:45;19.53;;;9.37;;
20523;SDS011;10420;48.542;12.270;2023-03-01T13:55:51;25.57;;;13.77;;
20523;SDS011;10420;48.542;12.270;2023-03-01T14:01:02;26.20;;;13.03;;
20523;SDS011;10420;48.542;12.270;2023-03-01T14:06:06;25.37;;;12.77;;
20523;SDS011;10420;48.542;12.270;2023-03-01T14:22:12;24.47;;;12.57;;
20523;SDS011;10420;48.542;12.270;2023-03-01T14:27:32;24.13;;;12.20;;
20523;SDS011;10420;48.542;12.270;2023-03-01T14:32:36;27.60;;;12.60;;
20523;SDS011;10420;48.542;12.270;2023-03-01T14:37:36;29.50;;;12.97;;
20523;SDS011;10420;48.542;12.270;2023-03-01T14:42:37;23.80;;;12.13;;
20523;SDS011;10420;48.542;12.270;2023-03-01T14:47:38;23.23;;;11.27;;
20523;SDS011;10420;48.542;12.270;2023-03-01T14:52:40;20.50;;;10.10;;
20523;SDS011;10420;48.542;12.270;2023-03-01T14:57:46;23.10;;;10.20;;
20523;SDS011;10420;48.542;12.270;2023-03-01T15:02:53;21.10;;;10.40;;
20523;SDS011;10420;48.542;12.270;2023-03-01T15:07:55;20.00;;;10.67;;
20523;SDS011;10420;48.542;12.270;2023-03-01T15:13:10;24.03;;;11.33;;
20523;SDS011;10420;48.542;12.270;2023-03-01T15:18:25;26.33;;;14.43;;
20523;SDS011;10420;48.542;12.270;2023-03-01T15:23:28;29.30;;;15.03;;
20523;SDS011;10420;48.542;12.270;2023-03-01T15:28:31;25.33;;;13.90;;
20523;SDS011;10420;48.542;12.270;2023-03-01T15:33:35;27.53;;;13.90;;
20523;SDS011;10420;48.542;12.270;2023-03-01T15:38:50;29.70;;;15.80;;
20523;SDS011;10420;48.542;12.270;2023-03-01T15:43:51;29.53;;;15.23;;
20523;SDS011;10420;48.542;12.270;2023-03-01T15:48:57;31.67;;;16.60;;
20523;SDS011;10420;48.542;12.270;2023-03-01T15:54:00;35.90;;;16.83;;
20523;SDS011;10420;48.542;12.270;2023-03-01T15:59:04;32.80;;;15.40;;
20523;SDS011;10420;48.542;12.270;2023-03-01T16:04:09;38.80;;;16.67;;
20523;SDS011;10420;48.542;12.270;2023-03-01T16:09:13;34.63;;;16.47;;
20523;SDS011;10420;48.542;12.270;2023-03-01T16:14:14;40.20;;;19.37;;
20523;SDS011;10420;48.542;12.270;2023-03-01T16:19:16;34.63;;;18.17;;
20523;SDS011;10420;48.542;12.270;2023-03-01T16:24:16;34.90;;;17.60;;
20523;SDS011;10420;48.542;12.270;2023-03-01T16:29:17;34.80;;;17.73;;
20523;SDS011;10420;48.542;12.270;2023-03-01T16:34:18;34.27;;;16.87;;
20523;SDS011;10420;48.542;12.270;2023-03-01T16:39:21;36.27;;;16.97;;
20523;SDS011;10420;48.542;12.270;2023-03-01T16:44:22;40.10;;;18.97;;
20523;SDS011;10420;48.542;12.270;2023-03-01T16:49:23;33.63;;;17.37;;
20523;SDS011;10420;48.542;12.270;2023-03-01T16:54:23;37.60;;;18.03;;
20523;SDS011;10420;48.542;12.270;2023-03-01T16:59:24;40.00;;;20.13;;
20523;SDS011;10420;48.542;12.270;2023-03-01T17:04:25;37.97;;;18.70;;
20523;SDS011;10420;48.542;12.270;2023-03-01T17:09:25;40.93;;;19.03;;
20523;SDS011;10420;48.542;12.270;2023-03-01T17:14:26;32.30;;;17.47;;
20523;SDS011;10420;48.542;12.270;2023-03-01T17:19:26;38.00;;;15.80;;
20523;SDS011;10420;48.542;12.270;2023-03-01T17:24:27;29.63;;;14.93;;
20523;SDS011;10420;48.542;12.270;2023-03-01T17:29:31;34.43;;;16.93;;
20523;SDS011;10420;48.542;12.270;2023-03-01T17:34:32;29.93;;;15.23;;
20523;SDS011;10420;48.542;12.270;2023-03-01T17:39:33;33.40;;;15.77;;
20523;SDS011;10420;48.542;12.270;2023-03-01T17:44:35;32.70;;;14.23;;
20523;SDS011;10420;48.542;12.270;2023-03-01T17:49:35;35.07;;;15.37;;
20523;SDS011;10420;48.542;12.270;2023-03-01T17:54:36;31.33;;;14.80;;
20523;SDS011;10420;48.542;12.270;2023-03-01T17:59:37;30.53;;;14.50;;
20523;SDS011;10420;48.542;12.270;2023-03-01T18:04:37;25.17;;;12.43;;
20523;SDS011;10420;48.542;12.270;2023-03-01T18:09:38;26.67;;;13.57;;
20523;SDS011;10420;48.542;12.270;2023-03-01T18:14:39;31.43;;;14.20;;
20523;SDS011;10420;48.542;12.270;2023-03-01T18:19:39;31.57;;;14.73;;
20523;SDS011;10420;48.542;12.270;2023-03-01T18:24:40;28.70;;;13.80;;
20523;SDS011;10420;48.542;12.270;2023-03-01T18:29:41;31.97;;;13.20;;
20523;SDS011;10420;48.542;12.270;2023-03-01T18:34:42;26.03;;;13.30;;
20523;SDS011;10420;48.542;12.270;2023-03-01T18:39:42;28.03;;;13.30;;
20523;SDS011;10420;48.542;12.270;2023-03-01T18:44:43;28.67;;;13.53;;
20523;SDS011;10420;48.542;12.270;2023-03-01T18:49:44;24.23;;;12.50;;
20523;SDS011;10420;48.542;12.270;2023-03-01T18:54:44;27.03;;;11.97;;
20523;SDS011;10420;48.542;12.270;2023-03-01T18:59:45;27.00;;;12.40;;
20523;SDS011;10420;48.542;12.270;2023-03-01T19:04:48;31.57;;;12.20;;
20523;SDS011;10420;48.542;12.270;2023-03-01T19:09:49;27.60;;;12.93;;
20523;SDS011;10420;48.542;12.270;2023-03-01T19:14:50;29.50;;;13.43;;
20523;SDS011;10420;48.542;12.270;2023-03-01T19:19:51;35.00;;;13.77;;
20523;SDS011;10420;48.542;12.270;2023-03-01T19:24:51;32.17;;;13.07;;
20523;SDS011;10420;48.542;12.270;2023-03-01T19:29:52;31.27;;;14.93;;
20523;SDS011;10420;48.542;12.270;2023-03-01T19:34:53;34.40;;;14.33;;
20523;SDS011;10420;48.542;12.270;2023-03-01T19:39:53;42.63;;;18.23;;
20523;SDS011;10420;48.542;12.270;2023-03-01T19:44:54;46.50;;;20.40;;
20523;SDS011;10420;48.542;12.270;2023-03-01T19:49:55;70.47;;;26.23;;
20523;SDS011;10420;48.542;12.270;2023-03-01T19:54:55;37.17;;;15.10;;
20523;SDS011;10420;48.542;12.270;2023-03-01T19:59:56;36.50;;;14.03;;
20523;SDS011;10420;48.542;12.270;2023-03-01T20:04:57;34.83;;;14.67;;
20523;SDS011;10420;48.542;12.270;2023-03-01T20:09:57;32.50;;;14.40;;
20523;SDS011;10420;48.542;12.270;2023-03-01T20:14:58;28.60;;;13.57;;
20523;SDS011;10420;48.542;12.270;2023-03-01T20:19:58;34.50;;;14.63;;
20523;SDS011;10420;48.542;12.270;2023-03-01T20:24:59;31.30;;;13.67;;
20523;SDS011;10420;48.542;12.270;2023-03-01T20:30:00;34.90;;;14.67;;
20523;SDS011;10420;48.542;12.270;2023-03-01T20:35:00;35.50;;;14.67;;
20523;SDS011;10420;48.542;12.270;2023-03-01T20:40:02;37.37;;;14.37;;
20523;SDS011;10420;48.542;12.270;2023-03-01T20:45:03;39.40;;;15.30;;
20523;SDS011;10420;48.542;12.270;2023-03-01T20:50:07;34.70;;;15.17;;
20523;SDS011;10420;48.542;12.270;2023-03-01T20:55:10;36.47;;;15.80;;
20523;SDS011;10420;48.542;12.270;2023-03-01T21:00:11;39.03;;;16.20;;
20523;SDS011;10420;48.542;12.270;2023-03-01T21:05:12;38.87;;;16.10;;
20523;SDS011;10420;48.542;12.270;2023-03-01T21:10:13;39.03;;;16.10;;
20523;SDS011;10420;48.542;12.270;2023-03-01T21:15:15;38.13;;;15.17;;
20523;SDS011;10420;48.542;12.270;2023-03-01T21:20:17;40.80;;;15.50;;
20523;SDS011;10420;48.542;12.270;2023-03-01T21:25:30;34.07;;;14.33;;
20523;SDS011;10420;48.542;12.270;2023-03-01T21:30:44;33.90;;;15.27;;
20523;SDS011;10420;48.542;12.270;2023-03-01T21:35:45;41.97;;;16.03;;
20523;SDS011;10420;48.542;12.270;2023-03-01T21:40:45;41.50;;;16.40;;
20523;SDS011;10420;48.542;12.270;2023-03-01T21:45:46;33.23;;;16.37;;
20523;SDS011;10420;48.542;12.270;2023-03-01T21:50:54;37.17;;;15.70;;
20523;SDS011;10420;48.542;12.270;2023-03-01T21:55:56;34.10;;;15.00;;
20523;SDS011;10420;48.542;12.270;2023-03-01T22:01:04;37.40;;;16.80;;
20523;SDS011;10420;48.542;12.270;2023-03-01T22:06:06;38.33;;;15.93;;
20523;SDS011;10420;48.542;12.270;2023-03-01T22:11:07;39.90;;;16.03;;
20523;SDS011;10420;48.542;12.270;2023-03-01T22:16:07;42.93;;;16.83;;
20523;SDS011;10420;48.542;12.270;2023-03-01T22:21:08;35.27;;;14.60;;
20523;SDS011;10420;48.542;12.270;2023-03-01T22:26:19;36.63;;;17.20;;
20523;SDS011;10420;48.542;12.270;2023-03-01T22:31:28;40.27;;;16.10;;
20523;SDS011;10420;48.542;12.270;2023-03-01T22:36:29;38.93;;;16.97;;
20523;SDS011;10420;48.542;12.270;2023-03-01T22:41:31;36.10;;;17.00;;
20523;SDS011;10420;48.542;12.270;2023-03-01T22:46:33;35.83;;;16.07;;
20523;SDS011;10420;48.542;12.270;2023-03-01T22:51:35;39.00;;;15.77;;
20523;SDS011;10420;48.542;12.270;2023-03-01T22:56:38;38.33;;;16.57;;
20523;SDS011;10420;48.542;12.270;2023-03-01T23:01:39;41.87;;;16.73;;
20523;SDS011;10420;48.542;12.270;2023-03-01T23:06:41;40.37;;;16.93;;
20523;SDS011;10420;48.542;12.270;2023-03-01T23:12:01;38.97;;;16.77;;
20523;SDS011;10420;48.542;12.270;2023-03-01T23:17:05;37.40;;;17.63;;
20523;SDS011;10420;48.542;12.270;2023-03-01T23:22:07;36.87;;;16.20;;
20523;SDS011;10420;48.542;12.270;2023-03-01T23:27:07;37.50;;;14.90;;
20523;SDS011;10420;48.542;12.270;2023-03-01T23:32:09;37.87;;;16.33;;
20523;SDS011;10420;48.542;12.270;2023-03-01T23:37:10;32.73;;;14.87;;
20523;SDS011;10420;48.542;12.270;2023-03-01T23:42:10;34.90;;;16.00;;
20523;SDS011;10420;48.542;12.270;2023-03-01T23:47:11;35.87;;;16.43;;
20523;SDS011;10420;48.542;12.270;2023-03-01T23:52:12;33.47;;;14.93;;
20523;SDS011;10420;48.542;12.270;2023-03-01T23:57:12;36.33;;;16.07;;
